createdAt,value
2018-06-25T00:01:06.941Z,101544.77
2018-06-25T00:03:36.033Z,101550.48
2018-06-25T00:06:05.179Z,101550.81
2018-06-25T00:08:34.273Z,101548.66
2018-06-25T00:11:03.344Z,101552.66
2018-06-25T00:13:32.432Z,101547.59
2018-06-25T00:16:01.509Z,101547.62
2018-06-25T00:18:30.600Z,101545.02
2018-06-25T00:20:59.700Z,101545.75
2018-06-25T00:23:28.799Z,101539.81
2018-06-25T00:25:57.880Z,101529.47
2018-06-25T00:28:26.947Z,101527.84
2018-06-25T00:30:56.045Z,101527.31
2018-06-25T00:33:25.135Z,101522.59
2018-06-25T00:35:54.224Z,101523.88
2018-06-25T00:38:23.300Z,101523.39
2018-06-25T00:40:52.393Z,101526.86
2018-06-25T00:43:21.455Z,101528.80
2018-06-25T00:45:50.557Z,101527.48
2018-06-25T00:48:19.627Z,101529.26
2018-06-25T00:50:48.788Z,101527.06
2018-06-25T00:53:17.860Z,101522.03
2018-06-25T00:55:46.951Z,101518.11
2018-06-25T00:58:16.024Z,101517.66
2018-06-25T01:00:45.120Z,101513.80
2018-06-25T01:03:14.192Z,101504.30
2018-06-25T01:05:43.288Z,101510.64
2018-06-25T01:08:12.355Z,101513.97
2018-06-25T01:10:41.452Z,101510.16
2018-06-25T01:13:10.524Z,101513.66
2018-06-25T01:15:39.635Z,101512.83
2018-06-25T01:18:08.708Z,101512.34
2018-06-25T01:20:37.869Z,101518.77
2018-06-25T01:23:06.945Z,101518.42
2018-06-25T01:25:36.041Z,101511.20
2018-06-25T01:28:05.416Z,101518.98
2018-06-25T01:30:34.512Z,101518.63
2018-06-25T01:33:03.592Z,101508.36
2018-06-25T01:35:32.681Z,101511.34
2018-06-25T01:38:01.757Z,101515.13
2018-06-25T01:40:30.892Z,101518.88
2018-06-25T01:42:59.969Z,101522.38
2018-06-25T01:45:29.076Z,101526.61
2018-06-25T01:47:58.146Z,101522.38
2018-06-25T01:50:27.444Z,101525.47
2018-06-25T01:52:56.560Z,101526.75
2018-06-25T01:55:25.632Z,101519.84
2018-06-25T01:57:54.727Z,101508.36
2018-06-25T02:00:23.803Z,101511.37
2018-06-25T02:02:52.893Z,101510.96
2018-06-25T02:05:21.964Z,101514.59
2018-06-25T02:07:51.065Z,101512.00
2018-06-25T02:10:20.148Z,101513.73
2018-06-25T02:12:49.243Z,101515.02
2018-06-25T02:15:18.332Z,101515.95
2018-06-25T02:17:47.424Z,101516.52
2018-06-25T02:20:16.496Z,101520.82
2018-06-25T02:22:51.925Z,101518.25
2018-06-25T02:25:20.995Z,101525.96
2018-06-25T02:27:50.088Z,101526.86
2018-06-25T02:30:19.169Z,101522.17
2018-06-25T02:32:48.257Z,101522.11
2018-06-25T02:35:17.337Z,101523.70
2018-06-25T02:37:46.433Z,101526.89
2018-06-25T02:40:15.512Z,101523.39
2018-06-25T02:42:44.613Z,101523.42
2018-06-25T02:45:13.684Z,101515.79
2018-06-25T02:47:42.781Z,101520.96
2018-06-25T02:50:11.853Z,101524.44
2018-06-25T02:52:40.968Z,101524.81
2018-06-25T02:55:10.053Z,101529.53
2018-06-25T02:57:39.144Z,101530.82
2018-06-25T03:00:08.223Z,101537.63
2018-06-25T03:02:37.332Z,101540.58
2018-06-25T03:05:06.421Z,101535.37
2018-06-25T03:07:35.493Z,101534.61
2018-06-25T03:10:04.626Z,101540.50
2018-06-25T03:12:33.701Z,101532.48
2018-06-25T03:15:02.798Z,101547.00
2018-06-25T03:17:31.868Z,101546.52
2018-06-25T03:20:00.964Z,101546.52
2018-06-25T03:22:30.036Z,101543.95
2018-06-25T03:24:59.139Z,101541.69
2018-06-25T03:27:28.219Z,101542.59
2018-06-25T03:29:57.320Z,101543.03
2018-06-25T03:32:26.407Z,101547.16
2018-06-25T03:34:55.505Z,101543.45
2018-06-25T03:37:24.596Z,101547.88
2018-06-25T03:39:53.704Z,101545.72
2018-06-25T03:42:22.804Z,101549.75
2018-06-25T03:44:51.909Z,101545.09
2018-06-25T03:47:20.985Z,101548.56
2018-06-25T03:49:50.600Z,101553.73
2018-06-25T03:52:19.704Z,101552.01
2018-06-25T03:54:48.804Z,101554.71
2018-06-25T03:57:17.885Z,101556.06
2018-06-25T03:59:46.987Z,101559.50
2018-06-25T04:02:16.068Z,101559.47
2018-06-25T04:04:45.177Z,101565.09
2018-06-25T04:07:14.256Z,101562.49
2018-06-25T04:09:43.375Z,101569.27
2018-06-25T04:12:12.511Z,101577.81
2018-06-25T04:18:49.520Z,101577.02
2018-06-25T04:21:19.642Z,101573.98
2018-06-25T04:23:48.751Z,101580.13
2018-06-25T04:26:17.853Z,101575.97
2018-06-25T04:28:46.944Z,101577.77
2018-06-25T04:31:16.057Z,101576.14
2018-06-25T04:33:45.839Z,101574.89
2018-06-25T04:36:14.941Z,101571.52
2018-06-25T04:38:44.450Z,101578.98
2018-06-25T04:41:13.901Z,101576.86
2018-06-25T04:43:43.481Z,101578.19
2018-06-25T04:46:12.912Z,101582.91
2018-06-25T04:48:42.285Z,101593.20
2018-06-25T04:51:11.417Z,101588.98
2018-06-25T04:53:41.364Z,101599.23
2018-06-25T04:56:11.105Z,101607.34
2018-06-25T04:58:40.208Z,101600.14
2018-06-25T05:01:09.300Z,101600.11
2018-06-25T05:03:38.911Z,101596.25
2018-06-25T05:06:08.003Z,101600.84
2018-06-25T05:08:37.101Z,101601.33
2018-06-25T05:11:06.177Z,101607.79
2018-06-25T05:13:35.276Z,101603.00
2018-06-25T05:16:04.380Z,101606.47
2018-06-25T05:18:33.629Z,101607.75
2018-06-25T05:21:02.780Z,101604.34
2018-06-25T05:23:31.856Z,101607.41
2018-06-25T05:26:00.928Z,101606.64
2018-06-25T05:28:30.038Z,101614.00
2018-06-25T05:30:59.112Z,101614.48
2018-06-25T05:33:28.220Z,101603.81
2018-06-25T05:35:57.297Z,101607.77
2018-06-25T05:38:26.391Z,101607.83
2018-06-25T05:40:55.485Z,101611.27
2018-06-25T05:43:25.013Z,101612.20
2018-06-25T05:45:54.087Z,101609.23
2018-06-25T05:48:23.196Z,101611.39
2018-06-25T05:50:52.268Z,101609.71
2018-06-25T05:53:21.464Z,101606.78
2018-06-25T05:55:50.552Z,101607.70
2018-06-25T05:58:19.668Z,101612.88
2018-06-25T06:00:48.768Z,101617.94
2018-06-25T06:03:17.889Z,101609.77
2018-06-25T06:05:47.005Z,101618.00
2018-06-25T06:08:16.148Z,101622.01
2018-06-25T06:10:45.252Z,101620.87
2018-06-25T06:13:14.391Z,101625.65
2018-06-25T06:15:43.494Z,101630.88
2018-06-25T06:18:12.595Z,101625.87
2018-06-25T06:20:41.712Z,101625.05
2018-06-25T06:23:10.804Z,101633.67
2018-06-25T06:25:39.940Z,101639.58
2018-06-25T06:28:09.049Z,101637.34
2018-06-25T06:30:38.176Z,101645.41
2018-06-25T06:33:07.273Z,101641.52
2018-06-25T06:35:36.388Z,101647.05
2018-06-25T06:38:05.811Z,101641.60
2018-06-25T06:40:34.953Z,101646.30
2018-06-25T06:43:04.195Z,101645.41
2018-06-25T06:45:33.308Z,101639.39
2018-06-25T06:48:02.409Z,101644.63
2018-06-25T06:50:31.523Z,101637.77
2018-06-25T06:53:00.668Z,101643.34
2018-06-25T06:55:29.821Z,101640.00
2018-06-25T06:57:58.938Z,101639.11
2018-06-25T07:00:28.037Z,101643.02
2018-06-25T07:02:57.116Z,101645.97
2018-06-25T07:05:26.236Z,101651.45
2018-06-25T07:07:55.321Z,101648.54
2018-06-25T07:10:24.449Z,101647.48
2018-06-25T07:12:53.505Z,101640.47
2018-06-25T07:15:22.599Z,101643.56
2018-06-25T07:17:51.676Z,101649.52
2018-06-25T07:20:20.776Z,101646.55
2018-06-25T07:22:49.852Z,101644.71
2018-06-25T07:25:18.953Z,101642.98
2018-06-25T07:27:48.042Z,101641.31
2018-06-25T07:30:17.140Z,101640.55
2018-06-25T07:32:46.224Z,101644.48
2018-06-25T07:35:15.339Z,101647.05
2018-06-25T07:37:44.424Z,101649.16
2018-06-25T07:40:13.540Z,101651.25
2018-06-25T07:42:42.620Z,101652.94
2018-06-25T07:45:11.753Z,101651.31
2018-06-25T07:47:40.853Z,101653.23
2018-06-25T07:50:09.919Z,101658.39
2018-06-25T07:52:39.045Z,101655.44
2018-06-25T07:55:08.124Z,101654.56
2018-06-25T07:57:37.224Z,101656.86
2018-06-25T08:00:06.617Z,101663.52
2018-06-25T08:02:35.735Z,101657.50
2018-06-25T08:05:04.922Z,101662.77
2018-06-25T08:07:34.031Z,101660.23
2018-06-25T08:10:03.181Z,101663.09
2018-06-25T08:12:32.228Z,101667.63
2018-06-25T08:15:01.309Z,101664.55
2018-06-25T08:17:30.428Z,101673.11
2018-06-25T08:19:59.503Z,101674.28
2018-06-25T08:22:28.610Z,101682.53
2018-06-25T08:24:57.701Z,101682.99
2018-06-25T08:27:26.804Z,101689.15
2018-06-25T08:29:55.933Z,101691.28
2018-06-25T08:32:24.991Z,101691.11
2018-06-25T08:34:54.082Z,101699.29
2018-06-25T08:37:23.193Z,101697.33
2018-06-25T08:39:52.280Z,101693.16
2018-06-25T08:42:21.399Z,101698.39
2018-06-25T08:44:50.487Z,101700.52
2018-06-25T08:47:19.600Z,101700.14
2018-06-25T08:49:48.691Z,101701.42
2018-06-25T08:52:17.852Z,101702.70
2018-06-25T08:54:47.981Z,101704.55
2018-06-25T08:57:17.416Z,101686.94
2018-06-25T08:59:46.485Z,101703.14
2018-06-25T09:02:15.556Z,101695.09
2018-06-25T09:04:44.655Z,101695.61
2018-06-25T09:07:13.740Z,101699.48
2018-06-25T09:09:42.830Z,101700.14
2018-06-25T09:12:11.900Z,101704.09
2018-06-25T09:14:40.992Z,101699.81
2018-06-25T09:17:10.061Z,101699.06
2018-06-25T09:19:39.155Z,101702.11
2018-06-25T09:22:08.236Z,101700.38
2018-06-25T09:24:37.320Z,101698.59
2018-06-25T09:27:06.432Z,101704.22
2018-06-25T09:29:35.516Z,101693.05
2018-06-25T09:32:04.590Z,101695.27
2018-06-25T09:34:39.635Z,101693.89
2018-06-25T09:37:08.753Z,101697.30
2018-06-25T09:39:37.844Z,101699.48
2018-06-25T09:42:07.000Z,101702.59
2018-06-25T09:44:36.105Z,101698.77
2018-06-25T09:47:05.192Z,101703.12
2018-06-25T09:49:34.736Z,101705.31
2018-06-25T09:52:04.438Z,101706.22
2018-06-25T09:54:40.177Z,101702.31
2018-06-25T09:57:09.218Z,101700.98
2018-06-25T09:59:38.319Z,101699.28
2018-06-25T10:02:07.404Z,101698.48
2018-06-25T10:04:36.507Z,101702.38
2018-06-25T10:07:05.739Z,101699.34
2018-06-25T10:09:34.852Z,101706.66
2018-06-25T10:12:03.955Z,101701.06
2018-06-25T10:14:33.032Z,101697.62
2018-06-25T10:17:02.141Z,101704.52
2018-06-25T10:19:31.228Z,101697.63
2018-06-25T10:22:00.340Z,101702.39
2018-06-25T10:24:29.456Z,101703.66
2018-06-25T10:26:58.572Z,101704.94
2018-06-25T10:29:27.668Z,101710.11
2018-06-25T10:31:56.772Z,101701.08
2018-06-25T10:34:25.864Z,101704.52
2018-06-25T10:36:54.984Z,101704.52
2018-06-25T10:39:24.113Z,101709.72
2018-06-25T10:41:53.216Z,101710.18
2018-06-25T10:44:23.285Z,101709.31
2018-06-25T10:46:52.427Z,101709.77
2018-06-25T10:49:21.507Z,101715.65
2018-06-25T10:51:50.629Z,101713.14
2018-06-25T10:54:19.714Z,101713.19
2018-06-25T10:56:48.800Z,101709.30
2018-06-25T10:59:17.919Z,101708.44
2018-06-25T11:01:47.008Z,101697.22
2018-06-25T11:04:16.075Z,101708.02
2018-06-25T11:06:45.176Z,101714.02
2018-06-25T11:09:14.256Z,101712.31
2018-06-25T11:11:43.408Z,101710.17
2018-06-25T11:14:12.484Z,101717.52
2018-06-25T11:16:41.572Z,101705.43
2018-06-25T11:19:10.636Z,101700.67
2018-06-25T11:21:39.751Z,101708.02
2018-06-25T11:24:08.820Z,101716.22
2018-06-25T11:26:38.133Z,101719.69
2018-06-25T11:29:07.255Z,101720.53
2018-06-25T11:31:36.319Z,101717.53
2018-06-25T11:34:05.419Z,101723.55
2018-06-25T11:36:34.496Z,101719.67
2018-06-25T11:39:04.857Z,101719.23
2018-06-25T11:41:33.936Z,101716.14
2018-06-25T11:44:03.057Z,101720.42
2018-06-25T11:46:32.136Z,101716.09
2018-06-25T11:49:01.224Z,101714.41
2018-06-25T11:51:30.328Z,101709.72
2018-06-25T11:53:59.424Z,101707.99
2018-06-25T11:56:28.515Z,101712.77
2018-06-25T11:58:57.620Z,101705.00
2018-06-25T12:01:26.720Z,101714.02
2018-06-25T12:03:55.810Z,101707.48
2018-06-25T12:06:24.872Z,101713.50
2018-06-25T12:08:53.981Z,101711.34
2018-06-25T12:11:23.063Z,101713.56
2018-06-25T12:13:52.164Z,101712.64
2018-06-25T12:16:21.229Z,101713.08
2018-06-25T12:18:50.314Z,101714.38
2018-06-25T12:21:19.398Z,101717.41
2018-06-25T12:23:48.492Z,101715.68
2018-06-25T12:26:17.557Z,101707.45
2018-06-25T12:28:46.685Z,101710.50
2018-06-25T12:31:15.799Z,101720.00
2018-06-25T12:33:44.892Z,101714.39
2018-06-25T12:36:14.028Z,101713.55
2018-06-25T12:38:43.275Z,101709.23
2018-06-25T12:41:12.404Z,101719.17
2018-06-25T12:43:41.507Z,101715.73
2018-06-25T12:46:10.705Z,101708.83
2018-06-25T12:48:39.856Z,101707.52
2018-06-25T12:51:08.953Z,101719.13
2018-06-25T12:53:38.056Z,101716.95
2018-06-25T12:56:07.156Z,101713.52
2018-06-25T12:58:36.227Z,101722.15
2018-06-25T13:01:05.428Z,101722.63
2018-06-25T13:03:34.533Z,101727.83
2018-06-25T13:06:03.724Z,101732.59
2018-06-25T13:08:32.965Z,101731.73
2018-06-25T13:11:02.192Z,101735.19
2018-06-25T13:13:31.277Z,101731.67
2018-06-25T13:16:00.387Z,101734.25
2018-06-25T13:18:29.481Z,101734.23
2018-06-25T13:20:58.580Z,101732.01
2018-06-25T13:23:27.679Z,101732.80
2018-06-25T13:25:56.833Z,101725.42
2018-06-25T13:28:25.896Z,101729.28
2018-06-25T13:30:54.999Z,101724.98
2018-06-25T13:33:24.105Z,101729.31
2018-06-25T13:35:53.188Z,101733.25
2018-06-25T13:38:22.393Z,101718.09
2018-06-25T13:40:51.479Z,101718.91
2018-06-25T13:43:20.584Z,101716.72
2018-06-25T13:45:49.809Z,101723.20
2018-06-25T13:48:18.979Z,101724.44
2018-06-25T13:50:48.028Z,101726.09
2018-06-25T13:53:17.164Z,101721.37
2018-06-25T13:55:46.256Z,101722.20
2018-06-25T13:58:15.365Z,101725.66
2018-06-25T14:00:44.455Z,101725.55
2018-06-25T14:03:13.553Z,101720.39
2018-06-25T14:05:42.632Z,101720.66
2018-06-25T14:08:11.749Z,101724.08
2018-06-25T14:10:40.824Z,101727.89
2018-06-25T14:13:10.017Z,101721.39
2018-06-25T14:15:39.153Z,101713.64
2018-06-25T14:18:08.270Z,101708.92
2018-06-25T14:20:37.498Z,101708.50
2018-06-25T14:23:07.248Z,101707.20
2018-06-25T14:25:41.785Z,101712.39
2018-06-25T14:28:16.477Z,101707.29
2018-06-25T14:30:50.949Z,101715.00
2018-06-25T14:34:23.432Z,101702.39
2018-06-25T14:36:52.740Z,101706.81
2018-06-25T14:39:21.837Z,101712.88
2018-06-25T14:41:50.913Z,101714.60
2018-06-25T14:44:20.041Z,101712.91
2018-06-25T14:46:49.113Z,101716.93
2018-06-25T14:49:18.254Z,101711.27
2018-06-25T14:51:47.457Z,101713.91
2018-06-25T14:54:16.698Z,101729.09
2018-06-25T14:56:46.364Z,101723.97
2018-06-25T14:59:15.658Z,101734.35
2018-06-25T15:01:44.753Z,101728.30
2018-06-25T15:04:13.869Z,101726.96
2018-06-25T15:06:42.964Z,101727.43
2018-06-25T15:09:13.082Z,101729.13
2018-06-25T15:11:43.503Z,101729.09
2018-06-25T15:14:13.516Z,101734.28
2018-06-25T15:16:42.625Z,101729.91
2018-06-25T15:19:11.772Z,101733.88
2018-06-25T15:21:40.945Z,101733.05
2018-06-25T15:24:10.039Z,101730.42
2018-06-25T15:26:39.252Z,101728.26
2018-06-25T15:29:08.332Z,101724.64
2018-06-25T15:31:37.444Z,101719.92
2018-06-25T15:34:06.611Z,101715.20
2018-06-25T15:36:35.751Z,101719.49
2018-06-25T15:39:07.998Z,101718.19
2018-06-25T15:41:37.244Z,101713.04
2018-06-25T15:44:06.336Z,101713.55
2018-06-25T15:46:35.462Z,101710.48
2018-06-25T15:49:04.577Z,101710.41
2018-06-25T15:51:33.704Z,101703.95
2018-06-25T15:54:02.793Z,101707.84
2018-06-25T15:56:31.909Z,101705.30
2018-06-25T15:59:01.092Z,101708.79
2018-06-25T16:01:30.200Z,101707.93
2018-06-25T16:03:59.429Z,101697.97
2018-06-25T16:06:28.572Z,101699.98
2018-06-25T16:08:57.645Z,101701.66
2018-06-25T16:11:26.944Z,101699.49
2018-06-25T16:13:56.021Z,101694.69
2018-06-25T16:16:25.216Z,101686.85
2018-06-25T16:18:54.320Z,101681.22
2018-06-25T16:21:23.443Z,101673.00
2018-06-25T16:23:53.288Z,101675.20
2018-06-25T16:26:22.396Z,101673.19
2018-06-25T16:28:51.560Z,101676.65
2018-06-25T16:31:20.888Z,101670.03
2018-06-25T16:33:49.996Z,101668.71
2018-06-25T16:36:19.073Z,101676.36
2018-06-25T16:38:48.291Z,101673.27
2018-06-25T16:41:17.377Z,101671.60
2018-06-25T16:43:46.471Z,101672.23
2018-06-25T16:46:15.593Z,101666.61
2018-06-25T16:48:44.753Z,101675.73
2018-06-25T16:51:13.932Z,101670.89
2018-06-25T16:53:43.063Z,101674.73
2018-06-25T16:56:12.171Z,101671.55
2018-06-25T16:58:41.288Z,101675.07
2018-06-25T17:01:10.424Z,101677.71
2018-06-25T17:03:39.525Z,101673.53
2018-06-25T17:06:08.653Z,101680.59
2018-06-25T17:08:37.752Z,101676.34
2018-06-25T17:11:06.829Z,101672.88
2018-06-25T17:13:36.646Z,101679.29
2018-06-25T17:16:05.741Z,101682.66
2018-06-25T17:18:35.652Z,101682.71
2018-06-25T17:21:04.744Z,101678.81
2018-06-25T17:23:34.282Z,101681.80
2018-06-25T17:26:03.449Z,101686.25
2018-06-25T17:28:32.504Z,101682.36
2018-06-25T17:31:02.036Z,101672.80
2018-06-25T17:33:31.142Z,101673.62
2018-06-25T17:36:00.318Z,101679.25
2018-06-25T17:38:29.460Z,101676.27
2018-06-25T17:40:58.554Z,101680.58
2018-06-25T17:43:27.677Z,101686.52
2018-06-25T17:45:56.769Z,101680.50
2018-06-25T17:48:26.092Z,101689.20
2018-06-25T17:50:55.096Z,101682.48
2018-06-25T17:53:24.321Z,101686.44
2018-06-25T17:55:53.456Z,101686.51
2018-06-25T17:58:22.613Z,101692.62
2018-06-25T18:00:51.801Z,101687.41
2018-06-25T18:03:21.636Z,101685.64
2018-06-25T18:05:50.720Z,101687.73
2018-06-25T18:08:19.983Z,101688.17
2018-06-25T18:10:49.096Z,101693.73
2018-06-25T18:13:18.177Z,101695.55
2018-06-25T18:15:47.296Z,101689.47
2018-06-25T18:18:16.388Z,101695.55
2018-06-25T18:20:45.551Z,101696.02
2018-06-25T18:23:14.588Z,101704.70
2018-06-25T18:25:43.697Z,101703.40
2018-06-25T18:28:13.579Z,101703.41
2018-06-25T18:30:42.651Z,101697.84
2018-06-25T18:33:11.752Z,101694.84
2018-06-25T18:35:40.856Z,101705.66
2018-06-25T18:38:10.021Z,101697.04
2018-06-25T18:40:39.257Z,101706.15
2018-06-25T18:43:08.332Z,101704.44
2018-06-25T18:45:37.457Z,101705.30
2018-06-25T18:48:06.924Z,101706.15
2018-06-25T18:50:36.041Z,101709.20
2018-06-25T18:53:05.904Z,101704.89
2018-06-25T18:55:35.041Z,101698.86
2018-06-25T18:58:05.089Z,101703.63
2018-06-25T19:00:34.257Z,101712.34
2018-06-25T19:03:03.437Z,101714.92
2018-06-25T19:05:32.676Z,101717.95
2018-06-25T19:08:01.821Z,101723.55
2018-06-25T19:10:31.240Z,101726.16
2018-06-25T19:13:00.623Z,101723.98
2018-06-25T19:15:29.744Z,101723.10
2018-06-25T19:17:58.823Z,101723.94
2018-06-25T19:20:27.895Z,101719.20
2018-06-25T19:22:56.996Z,101726.97
2018-06-25T19:25:26.073Z,101724.38
2018-06-25T19:27:55.184Z,101729.11
2018-06-25T19:30:24.256Z,101729.94
2018-06-25T19:32:53.388Z,101726.91
2018-06-25T19:35:22.456Z,101733.77
2018-06-25T19:37:51.560Z,101743.69
2018-06-25T19:40:20.816Z,101755.31
2018-06-25T19:42:50.520Z,101747.89
2018-06-25T19:45:19.625Z,101753.06
2018-06-25T19:47:48.728Z,101753.89
2018-06-25T19:50:17.805Z,101753.48
2018-06-25T19:52:46.928Z,101755.63
2018-06-25T19:55:16.003Z,101759.47
2018-06-25T19:57:45.101Z,101768.91
2018-06-25T20:00:14.204Z,101767.11
2018-06-25T20:02:43.391Z,101770.93
2018-06-25T20:05:12.512Z,101775.69
2018-06-25T20:07:42.513Z,101776.95
2018-06-25T20:10:11.597Z,101787.22
2018-06-25T20:12:40.699Z,101781.10
2018-06-25T20:15:09.996Z,101771.50
2018-06-25T20:17:39.036Z,101774.98
2018-06-25T20:20:08.420Z,101779.30
2018-06-25T20:22:37.545Z,101780.19
2018-06-25T20:25:08.144Z,101789.27
2018-06-25T20:27:37.342Z,101794.89
2018-06-25T20:30:06.856Z,101789.70
2018-06-25T20:32:36.175Z,101791.00
2018-06-25T20:35:07.296Z,101801.67
2018-06-25T20:37:36.395Z,101793.42
2018-06-25T20:40:05.481Z,101794.19
2018-06-25T20:42:34.576Z,101801.06
2018-06-25T20:45:03.747Z,101807.11
2018-06-25T20:47:32.840Z,101807.05
2018-06-25T20:50:01.988Z,101803.99
2018-06-25T20:52:31.185Z,101805.53
2018-06-25T20:55:00.284Z,101803.88
2018-06-25T20:57:29.478Z,101801.66
2018-06-25T20:59:58.584Z,101806.81
2018-06-25T21:02:27.668Z,101808.44
2018-06-25T21:04:56.768Z,101806.27
2018-06-25T21:07:25.923Z,101806.14
2018-06-25T21:09:55.044Z,101818.55
2018-06-25T21:12:24.145Z,101818.92
2018-06-25T21:14:53.351Z,101820.10
2018-06-25T21:17:22.521Z,101823.13
2018-06-25T21:19:51.728Z,101822.78
2018-06-25T21:22:20.812Z,101822.83
2018-06-25T21:24:50.040Z,101814.30
2018-06-25T21:27:19.168Z,101809.25
2018-06-25T21:29:48.280Z,101811.51
2018-06-25T21:32:17.386Z,101812.33
2018-06-25T21:34:46.516Z,101815.27
2018-06-25T21:37:15.596Z,101817.00
2018-06-25T21:39:44.711Z,101812.27
2018-06-25T21:42:13.864Z,101817.30
2018-06-25T21:44:42.972Z,101822.88
2018-06-25T21:47:12.085Z,101821.14
2018-06-25T21:49:41.628Z,101825.41
2018-06-25T21:52:10.746Z,101825.78
2018-06-25T21:54:39.836Z,101817.26
2018-06-25T21:57:08.931Z,101819.41
2018-06-25T21:59:38.016Z,101823.58
2018-06-25T22:02:07.145Z,101825.66
2018-06-25T22:04:36.240Z,101827.70
2018-06-25T22:07:05.341Z,101832.24
2018-06-25T22:09:34.424Z,101833.08
2018-06-25T22:12:03.533Z,101826.70
2018-06-25T22:14:32.608Z,101823.55
2018-06-25T22:17:01.750Z,101830.00
2018-06-25T22:19:30.827Z,101832.01
2018-06-25T22:21:59.945Z,101831.23
2018-06-25T22:24:29.020Z,101830.00
2018-06-25T22:26:58.135Z,101827.11
2018-06-25T22:29:27.221Z,101825.29
2018-06-25T22:31:56.329Z,101825.65
2018-06-25T22:34:25.444Z,101824.34
2018-06-25T22:36:54.515Z,101826.85
2018-06-25T22:39:23.599Z,101823.88
2018-06-25T22:41:52.709Z,101818.34
2018-06-25T22:44:21.784Z,101823.61
2018-06-25T22:46:50.888Z,101823.61
2018-06-25T22:49:19.964Z,101819.78
2018-06-25T22:51:49.096Z,101818.43
2018-06-25T22:54:18.176Z,101814.20
2018-06-25T22:56:47.317Z,101824.63
2018-06-25T22:59:16.405Z,101818.52
2018-06-25T23:01:45.548Z,101825.33
2018-06-25T23:04:14.679Z,101814.73
2018-06-25T23:06:43.825Z,101827.79
2018-06-25T23:09:13.080Z,101826.02
2018-06-25T23:11:42.190Z,101820.55
2018-06-25T23:14:11.276Z,101829.11
2018-06-25T23:16:40.393Z,101825.11
2018-06-25T23:19:09.497Z,101828.98
2018-06-25T23:21:38.586Z,101832.70
2018-06-25T23:24:08.001Z,101829.67
2018-06-25T23:26:37.726Z,101826.72
2018-06-25T23:29:06.841Z,101828.11
2018-06-25T23:31:35.937Z,101830.72
2018-06-25T23:34:05.046Z,101829.36
2018-06-25T23:36:34.139Z,101832.00
2018-06-25T23:39:03.420Z,101824.70
2018-06-25T23:41:32.509Z,101819.72
2018-06-25T23:44:01.624Z,101827.44
2018-06-25T23:46:30.765Z,101829.95
2018-06-25T23:48:59.869Z,101825.32
2018-06-25T23:51:28.951Z,101827.89
2018-06-25T23:53:58.076Z,101823.93
2018-06-25T23:56:27.165Z,101827.76
2018-06-25T23:58:56.276Z,101827.83
